TimeCDT,TemperatureF,Dew PointF,Humidity,Sea Level PressureIn,VisibilityMPH,Wind Direction,Wind SpeedMPH,Gust SpeedMPH,PrecipitationIn,Events,Conditions,WindDirDegrees,DateUTC
12:15 AM,64.6,53.8,68,30.12,10.0,North,-9999.0,-,N/A,,Clear,0,2013-07-03 05:15:00
12:35 AM,63.3,52.7,68,30.12,10.0,North,-9999.0,-,N/A,,Clear,0,2013-07-03 05:35:00
12:55 AM,64.9,53.8,67,-9999,10.0,North,-9999.0,-,N/A,,Clear,0,2013-07-03 05:55:00
1:15 AM,62.4,54.0,74,30.12,10.0,North,-9999.0,-,N/A,,Clear,0,2013-07-03 06:15:00
1:55 AM,60.1,53.6,79,30.12,10.0,North,-9999.0,-,N/A,,Clear,0,2013-07-03 06:55:00
2:15 AM,59.5,54.0,82,30.11,10.0,North,-9999.0,-,N/A,,Clear,0,2013-07-03 07:15:00
2:35 AM,60.3,53.6,79,30.11,10.0,North,-9999.0,-,N/A,,Clear,0,2013-07-03 07:35:00
2:55 AM,57.6,53.2,85,30.11,10.0,North,-9999.0,-,N/A,,Clear,0,2013-07-03 07:55:00
3:15 AM,58.1,53.1,83,30.11,10.0,North,-9999.0,-,N/A,,Clear,0,2013-07-03 08:15:00
3:35 AM,56.3,54.0,92,30.11,10.0,North,-9999.0,-,N/A,,Clear,0,2013-07-03 08:35:00
3:55 AM,57.0,52.9,86,30.10,10.0,North,-9999.0,-,N/A,,Clear,0,2013-07-03 08:55:00
4:15 AM,56.1,52.9,89,30.10,10.0,North,-9999.0,-,N/A,,Clear,0,2013-07-03 09:15:00
4:35 AM,56.8,52.7,86,30.10,10.0,North,-9999.0,-,N/A,,Clear,0,2013-07-03 09:35:00
4:55 AM,56.3,52.9,88,30.10,10.0,North,-9999.0,-,N/A,,Clear,0,2013-07-03 09:55:00
5:15 AM,56.1,52.7,88,30.10,10.0,North,-9999.0,-,N/A,,Clear,0,2013-07-03 10:15:00
5:35 AM,55.2,52.2,89,30.10,10.0,North,-9999.0,-,N/A,,Clear,0,2013-07-03 10:35:00
5:55 AM,55.0,52.5,91,30.10,10.0,North,-9999.0,-,N/A,,Clear,0,2013-07-03 10:55:00
6:15 AM,54.1,52.0,92,30.11,10.0,North,-9999.0,-,N/A,,Clear,0,2013-07-03 11:15:00
6:35 AM,54.5,52.3,92,30.11,10.0,North,-9999.0,-,N/A,,Clear,0,2013-07-03 11:35:00
6:55 AM,54.7,53.8,97,30.11,10.0,North,-9999.0,-,N/A,,Clear,0,2013-07-03 11:55:00
7:15 AM,55.8,53.2,91,30.10,10.0,North,-9999.0,-,N/A,,Clear,0,2013-07-03 12:15:00
7:35 AM,58.6,53.8,84,30.11,10.0,North,-9999.0,-,N/A,,Clear,0,2013-07-03 12:35:00
7:55 AM,61.3,55.6,81,30.11,10.0,North,-9999.0,-,N/A,,Clear,0,2013-07-03 12:55:00
8:15 AM,64.2,56.8,77,30.11,10.0,Calm,Calm,-,N/A,,Clear,0,2013-07-03 13:15:00
8:35 AM,67.1,57.0,70,30.12,10.0,Calm,Calm,-,N/A,,Clear,0,2013-07-03 13:35:00
8:55 AM,70.7,57.0,62,30.11,10.0,North,-9999.0,-,N/A,,Clear,0,2013-07-03 13:55:00
9:15 AM,72.3,58.1,61,30.11,10.0,North,-9999.0,-,N/A,,Clear,0,2013-07-03 14:15:00
9:35 AM,73.8,59.0,60,30.11,10.0,North,-9999.0,-,N/A,,Clear,0,2013-07-03 14:35:00
9:55 AM,76.5,59.2,55,30.11,10.0,North,-9999.0,-,N/A,,Clear,0,2013-07-03 14:55:00
10:15 AM,77.9,57.7,50,30.11,10.0,North,-9999.0,-,N/A,,Clear,0,2013-07-03 15:15:00
10:35 AM,79.7,57.0,46,30.10,10.0,Calm,Calm,-,N/A,,Clear,0,2013-07-03 15:35:00
10:55 AM,80.4,54.5,41,30.10,10.0,North,-9999.0,-,N/A,,Clear,0,2013-07-03 15:55:00
11:15 AM,81.9,54.1,38,30.09,10.0,North,-9999.0,-,N/A,,Clear,0,2013-07-03 16:15:00
11:35 AM,82.6,54.9,38,30.09,10.0,North,-9999.0,-,N/A,,Clear,0,2013-07-03 16:35:00
11:55 AM,82.9,53.4,36,30.09,10.0,North,-9999.0,-,N/A,,Clear,0,2013-07-03 16:55:00
12:15 PM,82.8,53.4,36,30.09,10.0,Calm,Calm,-,N/A,,Clear,0,2013-07-03 17:15:00
12:35 PM,83.7,54.0,36,30.08,10.0,North,-9999.0,-,N/A,,Clear,0,2013-07-03 17:35:00
12:55 PM,84.7,54.0,35,30.07,10.0,North,-9999.0,-,N/A,,Clear,0,2013-07-03 17:55:00
1:15 PM,84.6,52.7,33,30.07,10.0,North,-9999.0,-,N/A,,Clear,0,2013-07-03 18:15:00
1:35 PM,85.5,53.6,33,30.06,10.0,Calm,Calm,-,N/A,,Clear,0,2013-07-03 18:35:00
1:55 PM,84.9,53.4,34,30.06,10.0,North,-9999.0,-,N/A,,Clear,0,2013-07-03 18:55:00
2:15 PM,85.5,54.1,34,30.05,10.0,North,-9999.0,-,N/A,,Clear,0,2013-07-03 19:15:00
2:35 PM,84.6,53.1,34,30.04,10.0,North,-9999.0,-,N/A,,Clear,0,2013-07-03 19:35:00
2:55 PM,87.8,54.9,32,30.04,10.0,North,-9999.0,-,N/A,,Clear,0,2013-07-03 19:55:00
3:15 PM,86.9,53.1,31,30.03,10.0,North,-9999.0,-,N/A,,Clear,0,2013-07-03 20:15:00
3:35 PM,86.5,51.6,30,30.03,10.0,North,-9999.0,-,N/A,,Clear,0,2013-07-03 20:35:00
3:55 PM,86.7,54.0,32,30.02,10.0,Calm,Calm,-,N/A,,Clear,0,2013-07-03 20:55:00
4:15 PM,87.4,52.9,31,30.01,10.0,Calm,Calm,-,N/A,,Clear,0,2013-07-03 21:15:00
4:35 PM,87.3,54.0,32,30.01,10.0,North,-9999.0,-,N/A,,Clear,0,2013-07-03 21:35:00
4:55 PM,85.8,53.4,33,30.00,10.0,North,-9999.0,-,N/A,,Clear,0,2013-07-03 21:55:00
5:15 PM,86.4,53.2,32,29.99,10.0,North,-9999.0,-,N/A,,Scattered Clouds,0,2013-07-03 22:15:00
5:35 PM,86.4,55.0,34,29.99,10.0,North,-9999.0,-,N/A,,Scattered Clouds,0,2013-07-03 22:35:00
5:55 PM,86.7,54.0,32,29.98,10.0,North,-9999.0,-,N/A,,Clear,0,2013-07-03 22:55:00
6:15 PM,86.0,55.2,35,29.97,10.0,North,-9999.0,-,N/A,,Clear,0,2013-07-03 23:15:00
6:35 PM,86.0,54.5,34,29.97,10.0,North,-9999.0,-,N/A,,Clear,0,2013-07-03 23:35:00
6:55 PM,85.1,55.4,36,29.97,10.0,North,-9999.0,-,N/A,,Clear,0,2013-07-03 23:55:00
7:15 PM,84.4,55.0,36,29.97,10.0,North,-9999.0,-,N/A,,Clear,0,2013-07-04 00:15:00
7:35 PM,83.8,55.0,37,29.97,10.0,North,-9999.0,-,N/A,,Clear,0,2013-07-04 00:35:00
7:55 PM,82.8,55.0,38,29.97,10.0,North,-9999.0,-,N/A,,Clear,0,2013-07-04 00:55:00
8:15 PM,81.5,55.4,41,29.98,10.0,North,-9999.0,-,N/A,,Clear,0,2013-07-04 01:15:00
8:35 PM,80.6,55.4,42,29.98,10.0,North,-9999.0,-,N/A,,Clear,0,2013-07-04 01:35:00
8:55 PM,79.0,54.9,43,29.98,10.0,North,-9999.0,-,N/A,,Clear,0,2013-07-04 01:55:00
9:15 PM,78.1,54.7,44,29.99,10.0,North,-9999.0,-,N/A,,Clear,0,2013-07-04 02:15:00
9:35 PM,77.2,54.9,46,29.99,10.0,North,-9999.0,-,N/A,,Clear,0,2013-07-04 02:35:00
9:55 PM,75.7,54.9,48,30.00,10.0,North,-9999.0,-,N/A,,Clear,0,2013-07-04 02:55:00
10:15 PM,74.5,54.5,50,30.00,10.0,North,-9999.0,-,N/A,,Clear,0,2013-07-04 03:15:00
10:35 PM,72.0,54.7,54,30.01,10.0,North,-9999.0,-,N/A,,Clear,0,2013-07-04 03:35:00
10:55 PM,71.6,54.7,55,30.02,10.0,North,-9999.0,-,N/A,,Clear,0,2013-07-04 03:55:00
11:15 PM,72.7,54.5,53,30.02,10.0,North,-9999.0,-,N/A,,Clear,0,2013-07-04 04:15:00
11:35 PM,73.8,54.7,51,30.02,10.0,North,-9999.0,-,N/A,,Scattered Clouds,0,2013-07-04 04:35:00
11:55 PM,73.4,55.4,53,30.02,10.0,North,-9999.0,-,N/A,,Clear,0,2013-07-04 04:55:00